Rancho Viejo, Texas
Current Conditions -  °F | °C
As of 3:42 PM on Thursday 18 Dec 2014 (Local Time) from KBRO Reporting Station
Overcast Overcast  
Wind Chill: 75°   Ceiling: 6500
Heat Index: 75°   Visibility: 8mi
Dew Point: 68°   Wind: 14mph
Humidity: 79%   Direction: 150°SSE
Pressure: 29.95"   Gusts: NA
Location:  26.0347°N, 97.5478°W
Report Text: KBRO 182142Z 15012KT 8SM SCT019 SCT025 OVC065 24/20 A2995 RMK AO2 T02390200
Loading
Personal Weather Stations






























Interactive Weather Map New forecast layout! Learn more

10-Day Weather Forecast

Advertisements
Track Severe Weather on mobile